Aérodrome :
LOGIN :

S'inscrire | Disclaimer

   EN    FR    IT 

 










Légende :    VFR   VFR Marginal   IFR   IFR Intensif   IFR Très Intensif
Visi : 
Plafond : 
>= 8 km
>= 3000ft
5 à 8 km
1000 à 3000 ft
1500m à 5 km
500 à 1000 ft
800 à 1500m
200 à 500 ft
< 800m
< 200 ft
Symboles :   Orages  Brouillard  Fortes neiges  Fortes précipitations  Vent > 20 kt
SIGMETs :   Divers  Orages  Givrage  Turbulence  Onde Orograph.  Cendres Volcan.






- Altitude de l'aérodrome : 74 ft
- Code IATA : LRH


LFBH - La Rochelle Ile de Ré

DERNIER METAR :
  • 220630Z AUTO 16010KT CAVOK 15/14 Q1010 NOSIG

METARs EXPIRÉS :
  • 220600Z AUTO 16010KT CAVOK 15/13 Q1010 NOSIG
  • 220530Z AUTO 16011KT CAVOK 15/13 Q1010 NOSIG
  • 220500Z AUTO 15011KT CAVOK 15/13 Q1009 NOSIG
  • 220430Z AUTO 16011KT CAVOK 15/13 Q1009 NOSIG
  • 220400Z AUTO 15010KT CAVOK 14/13 Q1009 NOSIG

TAF TAF LFBH
Valide du 22 à 06h jusqu'au 23 à 06h UTC


220500Z 2206/2306 16010KT CAVOK
BECMG 2216/2218 VRB03KT
PROB40 2222/2306 3000 BR OVC003
ATIS : +33 5 46 00 13 92



MET'MAP, la Météo Aéronautique d'un coup d'oeil ! - Copyright ORBIFLY Décembre 2007 - Disclaimer

ORBIFLY MET'MAP TEAM :

Programmation & Développement : Alexandra Zaïnal
Sur une idée originale de : Baudouin d'Aumeries
Assistance à la programmation : Marc-Olivier Méhu
Soutien technique & logistique : Manuel Goepfert

Contact : metmap@orbifly.com




SOURCES & CREDITS :

   NOAA